sensor_id;sensor_type;location;lat;lon;timestamp;P1;durP1;ratioP1;P2;durP2;ratioP2
4963;SDS011;2497;47.410;9.740;2023-06-19T00:01:41;9.00;;;6.53;;
4963;SDS011;2497;47.410;9.740;2023-06-19T00:04:09;10.50;;;7.00;;
4963;SDS011;2497;47.410;9.740;2023-06-19T00:06:38;9.53;;;6.77;;
4963;SDS011;2497;47.410;9.740;2023-06-19T00:09:06;10.37;;;7.20;;
4963;SDS011;2497;47.410;9.740;2023-06-19T00:11:38;9.30;;;7.03;;
4963;SDS011;2497;47.410;9.740;2023-06-19T00:14:08;15.07;;;7.77;;
4963;SDS011;2497;47.410;9.740;2023-06-19T00:16:35;9.00;;;6.60;;
4963;SDS011;2497;47.410;9.740;2023-06-19T00:19:03;10.13;;;6.20;;
4963;SDS011;2497;47.410;9.740;2023-06-19T00:21:31;9.00;;;6.60;;
4963;SDS011;2497;47.410;9.740;2023-06-19T00:24:00;12.23;;;7.00;;
4963;SDS011;2497;47.410;9.740;2023-06-19T00:26:27;9.20;;;5.93;;
4963;SDS011;2497;47.410;9.740;2023-06-19T00:28:54;9.93;;;6.77;;
4963;SDS011;2497;47.410;9.740;2023-06-19T00:31:21;8.77;;;6.27;;
4963;SDS011;2497;47.410;9.740;2023-06-19T00:33:52;10.80;;;6.50;;
4963;SDS011;2497;47.410;9.740;2023-06-19T00:36:19;9.70;;;6.50;;
4963;SDS011;2497;47.410;9.740;2023-06-19T00:38:48;11.07;;;6.40;;
4963;SDS011;2497;47.410;9.740;2023-06-19T00:41:17;7.97;;;6.20;;
4963;SDS011;2497;47.410;9.740;2023-06-19T00:43:44;9.73;;;6.10;;
4963;SDS011;2497;47.410;9.740;2023-06-19T00:46:11;9.23;;;6.40;;
4963;SDS011;2497;47.410;9.740;2023-06-19T00:48:40;8.50;;;5.97;;
4963;SDS011;2497;47.410;9.740;2023-06-19T00:51:07;10.23;;;6.10;;
4963;SDS011;2497;47.410;9.740;2023-06-19T00:53:35;8.40;;;6.00;;
4963;SDS011;2497;47.410;9.740;2023-06-19T00:56:03;9.37;;;6.77;;
4963;SDS011;2497;47.410;9.740;2023-06-19T00:58:33;9.93;;;6.37;;
4963;SDS011;2497;47.410;9.740;2023-06-19T01:01:00;9.90;;;6.37;;
4963;SDS011;2497;47.410;9.740;2023-06-19T01:03:29;9.07;;;6.00;;
4963;SDS011;2497;47.410;9.740;2023-06-19T01:05:56;9.63;;;6.10;;
4963;SDS011;2497;47.410;9.740;2023-06-19T01:08:43;11.23;;;7.27;;
4963;SDS011;2497;47.410;9.740;2023-06-19T01:11:21;9.67;;;6.10;;
4963;SDS011;2497;47.410;9.740;2023-06-19T01:13:58;10.00;;;7.27;;
4963;SDS011;2497;47.410;9.740;2023-06-19T01:16:30;12.43;;;7.03;;
4963;SDS011;2497;47.410;9.740;2023-06-19T01:18:57;11.07;;;6.80;;
4963;SDS011;2497;47.410;9.740;2023-06-19T01:21:25;11.20;;;6.33;;
4963;SDS011;2497;47.410;9.740;2023-06-19T01:23:54;11.90;;;6.83;;
4963;SDS011;2497;47.410;9.740;2023-06-19T01:26:21;12.77;;;7.43;;
4963;SDS011;2497;47.410;9.740;2023-06-19T01:28:52;11.07;;;6.90;;
4963;SDS011;2497;47.410;9.740;2023-06-19T01:31:21;8.63;;;6.27;;
4963;SDS011;2497;47.410;9.740;2023-06-19T01:33:55;12.50;;;8.10;;
4963;SDS011;2497;47.410;9.740;2023-06-19T01:36:23;8.00;;;6.70;;
4963;SDS011;2497;47.410;9.740;2023-06-19T01:38:51;10.60;;;6.17;;
4963;SDS011;2497;47.410;9.740;2023-06-19T01:41:21;11.80;;;7.10;;
4963;SDS011;2497;47.410;9.740;2023-06-19T01:43:50;8.87;;;6.70;;
4963;SDS011;2497;47.410;9.740;2023-06-19T01:46:18;20.10;;;7.57;;
4963;SDS011;2497;47.410;9.740;2023-06-19T01:48:45;9.07;;;6.10;;
4963;SDS011;2497;47.410;9.740;2023-06-19T01:51:12;15.30;;;7.00;;
4963;SDS011;2497;47.410;9.740;2023-06-19T01:53:40;9.77;;;6.73;;
4963;SDS011;2497;47.410;9.740;2023-06-19T01:56:12;8.87;;;6.50;;
4963;SDS011;2497;47.410;9.740;2023-06-19T01:58:39;8.07;;;6.57;;
4963;SDS011;2497;47.410;9.740;2023-06-19T02:01:07;11.90;;;7.17;;
4963;SDS011;2497;47.410;9.740;2023-06-19T02:03:35;13.20;;;6.93;;
4963;SDS011;2497;47.410;9.740;2023-06-19T02:06:04;8.07;;;5.97;;
4963;SDS011;2497;47.410;9.740;2023-06-19T02:08:32;11.30;;;7.37;;
4963;SDS011;2497;47.410;9.740;2023-06-19T02:10:59;10.50;;;6.90;;
4963;SDS011;2497;47.410;9.740;2023-06-19T02:13:29;9.83;;;6.97;;
4963;SDS011;2497;47.410;9.740;2023-06-19T02:15:56;9.03;;;6.00;;
4963;SDS011;2497;47.410;9.740;2023-06-19T02:18:27;9.40;;;6.37;;
4963;SDS011;2497;47.410;9.740;2023-06-19T02:20:54;11.63;;;7.10;;
4963;SDS011;2497;47.410;9.740;2023-06-19T02:23:21;11.03;;;6.70;;
4963;SDS011;2497;47.410;9.740;2023-06-19T02:25:48;11.63;;;6.97;;
4963;SDS011;2497;47.410;9.740;2023-06-19T02:28:15;11.27;;;7.07;;
4963;SDS011;2497;47.410;9.740;2023-06-19T02:30:44;9.73;;;6.60;;
4963;SDS011;2497;47.410;9.740;2023-06-19T02:33:13;10.13;;;6.90;;
4963;SDS011;2497;47.410;9.740;2023-06-19T02:35:41;10.77;;;6.60;;
4963;SDS011;2497;47.410;9.740;2023-06-19T02:38:09;15.70;;;6.87;;
4963;SDS011;2497;47.410;9.740;2023-06-19T02:40:37;12.70;;;7.60;;
4963;SDS011;2497;47.410;9.740;2023-06-19T02:43:04;9.67;;;6.90;;
4963;SDS011;2497;47.410;9.740;2023-06-19T02:45:31;9.80;;;7.10;;
4963;SDS011;2497;47.410;9.740;2023-06-19T02:48:00;11.27;;;7.60;;
4963;SDS011;2497;47.410;9.740;2023-06-19T02:50:27;11.13;;;7.00;;
4963;SDS011;2497;47.410;9.740;2023-06-19T02:52:55;9.43;;;6.60;;
4963;SDS011;2497;47.410;9.740;2023-06-19T02:55:22;11.77;;;7.30;;
4963;SDS011;2497;47.410;9.740;2023-06-19T02:57:49;10.10;;;7.00;;
4963;SDS011;2497;47.410;9.740;2023-06-19T03:00:16;11.53;;;7.87;;
4963;SDS011;2497;47.410;9.740;2023-06-19T03:02:43;11.40;;;7.67;;
4963;SDS011;2497;47.410;9.740;2023-06-19T03:05:14;9.23;;;6.10;;
4963;SDS011;2497;47.410;9.740;2023-06-19T03:07:44;11.40;;;7.67;;
4963;SDS011;2497;47.410;9.740;2023-06-19T03:10:11;12.60;;;7.50;;
4963;SDS011;2497;47.410;9.740;2023-06-19T03:12:38;11.27;;;6.77;;
4963;SDS011;2497;47.410;9.740;2023-06-19T03:15:06;10.10;;;6.33;;
4963;SDS011;2497;47.410;9.740;2023-06-19T03:17:33;8.80;;;6.40;;
4963;SDS011;2497;47.410;9.740;2023-06-19T03:20:10;12.63;;;6.90;;
4963;SDS011;2497;47.410;9.740;2023-06-19T03:22:40;10.77;;;7.50;;
4963;SDS011;2497;47.410;9.740;2023-06-19T03:25:10;11.30;;;7.20;;
4963;SDS011;2497;47.410;9.740;2023-06-19T03:27:45;10.20;;;7.27;;
4963;SDS011;2497;47.410;9.740;2023-06-19T03:30:13;14.40;;;8.33;;
4963;SDS011;2497;47.410;9.740;2023-06-19T03:32:49;14.03;;;8.87;;
4963;SDS011;2497;47.410;9.740;2023-06-19T03:35:17;10.30;;;8.23;;
4963;SDS011;2497;47.410;9.740;2023-06-19T03:37:49;12.83;;;7.97;;
4963;SDS011;2497;47.410;9.740;2023-06-19T03:40:23;16.73;;;9.10;;
4963;SDS011;2497;47.410;9.740;2023-06-19T03:42:58;11.03;;;8.50;;
4963;SDS011;2497;47.410;9.740;2023-06-19T03:45:28;13.10;;;8.60;;
4963;SDS011;2497;47.410;9.740;2023-06-19T03:47:58;11.70;;;8.80;;
4963;SDS011;2497;47.410;9.740;2023-06-19T03:50:27;10.40;;;7.53;;
4963;SDS011;2497;47.410;9.740;2023-06-19T03:53:11;13.10;;;8.90;;
4963;SDS011;2497;47.410;9.740;2023-06-19T03:55:39;12.37;;;8.60;;
4963;SDS011;2497;47.410;9.740;2023-06-19T03:58:10;11.10;;;8.10;;
4963;SDS011;2497;47.410;9.740;2023-06-19T04:00:37;12.57;;;9.00;;
4963;SDS011;2497;47.410;9.740;2023-06-19T04:03:06;13.10;;;8.37;;
4963;SDS011;2497;47.410;9.740;2023-06-19T04:05:34;16.17;;;9.03;;
4963;SDS011;2497;47.410;9.740;2023-06-19T04:08:01;12.27;;;8.70;;
4963;SDS011;2497;47.410;9.740;2023-06-19T04:10:30;12.10;;;7.83;;
4963;SDS011;2497;47.410;9.740;2023-06-19T04:12:57;16.97;;;9.40;;
4963;SDS011;2497;47.410;9.740;2023-06-19T04:15:24;13.67;;;8.23;;
4963;SDS011;2497;47.410;9.740;2023-06-19T04:17:52;15.43;;;9.03;;
4963;SDS011;2497;47.410;9.740;2023-06-19T04:20:19;15.20;;;9.37;;
4963;SDS011;2497;47.410;9.740;2023-06-19T04:22:46;11.47;;;7.63;;
4963;SDS011;2497;47.410;9.740;2023-06-19T04:25:13;12.60;;;8.10;;
4963;SDS011;2497;47.410;9.740;2023-06-19T04:27:43;10.27;;;7.47;;
4963;SDS011;2497;47.410;9.740;2023-06-19T04:30:11;13.63;;;8.07;;
4963;SDS011;2497;47.410;9.740;2023-06-19T04:32:38;11.50;;;7.70;;
4963;SDS011;2497;47.410;9.740;2023-06-19T04:35:06;14.70;;;7.60;;
4963;SDS011;2497;47.410;9.740;2023-06-19T04:37:34;12.00;;;8.10;;
4963;SDS011;2497;47.410;9.740;2023-06-19T04:40:01;12.63;;;7.93;;
4963;SDS011;2497;47.410;9.740;2023-06-19T04:42:29;14.53;;;7.20;;
4963;SDS011;2497;47.410;9.740;2023-06-19T04:45:02;11.60;;;7.93;;
4963;SDS011;2497;47.410;9.740;2023-06-19T04:47:32;10.30;;;8.00;;
4963;SDS011;2497;47.410;9.740;2023-06-19T04:50:01;11.73;;;8.07;;
4963;SDS011;2497;47.410;9.740;2023-06-19T04:52:29;14.30;;;7.77;;
4963;SDS011;2497;47.410;9.740;2023-06-19T04:54:58;10.97;;;7.60;;
4963;SDS011;2497;47.410;9.740;2023-06-19T04:57:25;14.13;;;7.17;;
4963;SDS011;2497;47.410;9.740;2023-06-19T04:59:52;11.90;;;7.57;;
4963;SDS011;2497;47.410;9.740;2023-06-19T05:02:21;12.83;;;8.30;;
4963;SDS011;2497;47.410;9.740;2023-06-19T05:04:49;12.70;;;7.93;;
4963;SDS011;2497;47.410;9.740;2023-06-19T05:07:16;12.50;;;7.50;;
4963;SDS011;2497;47.410;9.740;2023-06-19T05:09:43;10.43;;;7.40;;
4963;SDS011;2497;47.410;9.740;2023-06-19T05:12:11;12.60;;;7.80;;
4963;SDS011;2497;47.410;9.740;2023-06-19T05:14:38;11.60;;;7.40;;
4963;SDS011;2497;47.410;9.740;2023-06-19T05:17:05;11.13;;;7.67;;
4963;SDS011;2497;47.410;9.740;2023-06-19T05:19:36;13.37;;;7.67;;
4963;SDS011;2497;47.410;9.740;2023-06-19T05:22:03;11.80;;;7.53;;
4963;SDS011;2497;47.410;9.740;2023-06-19T05:24:31;11.73;;;8.20;;
4963;SDS011;2497;47.410;9.740;2023-06-19T05:27:00;13.33;;;7.77;;
4963;SDS011;2497;47.410;9.740;2023-06-19T05:29:27;12.43;;;7.80;;
4963;SDS011;2497;47.410;9.740;2023-06-19T05:31:56;13.87;;;8.40;;
4963;SDS011;2497;47.410;9.740;2023-06-19T05:34:23;10.30;;;7.27;;
4963;SDS011;2497;47.410;9.740;2023-06-19T05:36:51;9.30;;;6.77;;
4963;SDS011;2497;47.410;9.740;2023-06-19T05:39:18;11.37;;;7.20;;
4963;SDS011;2497;47.410;9.740;2023-06-19T05:41:45;8.60;;;6.83;;
4963;SDS011;2497;47.410;9.740;2023-06-19T05:44:13;13.27;;;7.43;;
4963;SDS011;2497;47.410;9.740;2023-06-19T05:46:41;11.43;;;7.73;;
4963;SDS011;2497;47.410;9.740;2023-06-19T05:49:09;24.73;;;8.10;;
4963;SDS011;2497;47.410;9.740;2023-06-19T05:51:36;12.43;;;6.83;;
4963;SDS011;2497;47.410;9.740;2023-06-19T05:54:06;10.80;;;7.20;;
4963;SDS011;2497;47.410;9.740;2023-06-19T05:56:34;11.27;;;7.20;;
4963;SDS011;2497;47.410;9.740;2023-06-19T05:59:02;10.80;;;7.90;;
4963;SDS011;2497;47.410;9.740;2023-06-19T06:01:29;10.43;;;7.03;;
4963;SDS011;2497;47.410;9.740;2023-06-19T06:03:56;11.70;;;7.23;;
4963;SDS011;2497;47.410;9.740;2023-06-19T06:06:26;13.03;;;6.50;;
4963;SDS011;2497;47.410;9.740;2023-06-19T06:08:53;12.73;;;6.50;;
4963;SDS011;2497;47.410;9.740;2023-06-19T06:11:22;17.60;;;7.47;;
4963;SDS011;2497;47.410;9.740;2023-06-19T06:13:50;8.93;;;6.93;;
4963;SDS011;2497;47.410;9.740;2023-06-19T06:16:17;14.60;;;7.63;;
4963;SDS011;2497;47.410;9.740;2023-06-19T06:18:44;9.83;;;7.43;;
4963;SDS011;2497;47.410;9.740;2023-06-19T06:21:11;11.87;;;7.43;;
4963;SDS011;2497;47.410;9.740;2023-06-19T06:23:43;11.50;;;6.97;;
4963;SDS011;2497;47.410;9.740;2023-06-19T06:26:14;8.83;;;6.10;;
4963;SDS011;2497;47.410;9.740;2023-06-19T06:28:43;10.97;;;7.50;;
4963;SDS011;2497;47.410;9.740;2023-06-19T06:31:10;10.90;;;6.53;;
4963;SDS011;2497;47.410;9.740;2023-06-19T06:33:37;11.03;;;7.10;;
4963;SDS011;2497;47.410;9.740;2023-06-19T06:36:04;8.80;;;6.23;;
4963;SDS011;2497;47.410;9.740;2023-06-19T06:38:34;9.60;;;6.90;;
4963;SDS011;2497;47.410;9.740;2023-06-19T06:41:01;9.73;;;6.63;;
4963;SDS011;2497;47.410;9.740;2023-06-19T06:43:33;13.10;;;7.20;;
4963;SDS011;2497;47.410;9.740;2023-06-19T06:46:01;12.07;;;7.73;;
4963;SDS011;2497;47.410;9.740;2023-06-19T06:48:31;11.27;;;6.60;;
4963;SDS011;2497;47.410;9.740;2023-06-19T06:50:58;12.50;;;7.20;;
4963;SDS011;2497;47.410;9.740;2023-06-19T06:53:26;13.10;;;7.73;;
4963;SDS011;2497;47.410;9.740;2023-06-19T06:55:54;12.60;;;7.10;;
4963;SDS011;2497;47.410;9.740;2023-06-19T06:58:21;9.03;;;6.60;;
4963;SDS011;2497;47.410;9.740;2023-06-19T07:00:48;10.80;;;6.10;;
4963;SDS011;2497;47.410;9.740;2023-06-19T07:03:20;11.40;;;6.43;;
4963;SDS011;2497;47.410;9.740;2023-06-19T07:05:47;9.73;;;7.37;;
4963;SDS011;2497;47.410;9.740;2023-06-19T07:08:14;13.07;;;7.27;;
4963;SDS011;2497;47.410;9.740;2023-06-19T07:10:42;9.90;;;7.20;;
4963;SDS011;2497;47.410;9.740;2023-06-19T07:13:09;15.97;;;7.80;;
4963;SDS011;2497;47.410;9.740;2023-06-19T07:15:36;9.97;;;7.43;;
4963;SDS011;2497;47.410;9.740;2023-06-19T07:18:03;19.00;;;7.00;;
4963;SDS011;2497;47.410;9.740;2023-06-19T07:20:34;10.10;;;7.30;;
4963;SDS011;2497;47.410;9.740;2023-06-19T07:23:01;10.30;;;7.27;;
4963;SDS011;2497;47.410;9.740;2023-06-19T07:25:28;11.10;;;6.90;;
4963;SDS011;2497;47.410;9.740;2023-06-19T07:27:55;9.60;;;5.80;;
4963;SDS011;2497;47.410;9.740;2023-06-19T07:30:23;5.60;;;4.70;;
4963;SDS011;2497;47.410;9.740;2023-06-19T07:32:50;9.30;;;5.17;;
4963;SDS011;2497;47.410;9.740;2023-06-19T07:35:18;8.73;;;6.20;;
4963;SDS011;2497;47.410;9.740;2023-06-19T07:37:46;9.33;;;5.87;;
4963;SDS011;2497;47.410;9.740;2023-06-19T07:40:13;8.77;;;5.30;;
4963;SDS011;2497;47.410;9.740;2023-06-19T07:42:41;9.80;;;6.07;;
4963;SDS011;2497;47.410;9.740;2023-06-19T07:45:08;7.67;;;5.50;;
4963;SDS011;2497;47.410;9.740;2023-06-19T07:47:36;8.37;;;5.83;;
4963;SDS011;2497;47.410;9.740;2023-06-19T07:50:06;9.13;;;5.80;;
4963;SDS011;2497;47.410;9.740;2023-06-19T07:52:33;7.90;;;5.87;;
4963;SDS011;2497;47.410;9.740;2023-06-19T07:55:02;9.50;;;5.37;;
4963;SDS011;2497;47.410;9.740;2023-06-19T07:57:29;10.40;;;5.73;;
4963;SDS011;2497;47.410;9.740;2023-06-19T07:59:57;9.50;;;5.13;;
4963;SDS011;2497;47.410;9.740;2023-06-19T08:02:24;5.77;;;5.13;;
4963;SDS011;2497;47.410;9.740;2023-06-19T08:04:52;11.47;;;5.33;;
4963;SDS011;2497;47.410;9.740;2023-06-19T08:07:19;5.43;;;4.57;;
4963;SDS011;2497;47.410;9.740;2023-06-19T08:09:46;8.90;;;4.83;;
4963;SDS011;2497;47.410;9.740;2023-06-19T08:12:15;6.43;;;5.07;;
4963;SDS011;2497;47.410;9.740;2023-06-19T08:14:44;7.07;;;4.57;;
4963;SDS011;2497;47.410;9.740;2023-06-19T08:17:11;5.20;;;4.70;;
4963;SDS011;2497;47.410;9.740;2023-06-19T08:19:38;7.87;;;4.90;;
4963;SDS011;2497;47.410;9.740;2023-06-19T08:22:07;6.57;;;4.50;;
4963;SDS011;2497;47.410;9.740;2023-06-19T08:24:35;6.57;;;4.53;;
4963;SDS011;2497;47.410;9.740;2023-06-19T08:27:07;7.93;;;5.00;;
4963;SDS011;2497;47.410;9.740;2023-06-19T08:29:36;6.77;;;5.30;;
4963;SDS011;2497;47.410;9.740;2023-06-19T08:32:03;8.70;;;5.13;;
4963;SDS011;2497;47.410;9.740;2023-06-19T08:34:35;8.27;;;5.67;;
4963;SDS011;2497;47.410;9.740;2023-06-19T08:37:05;6.33;;;4.70;;
4963;SDS011;2497;47.410;9.740;2023-06-19T08:39:32;8.60;;;5.57;;
4963;SDS011;2497;47.410;9.740;2023-06-19T08:42:01;7.90;;;5.27;;
4963;SDS011;2497;47.410;9.740;2023-06-19T08:44:28;7.77;;;5.17;;
4963;SDS011;2497;47.410;9.740;2023-06-19T08:46:57;7.10;;;5.60;;
4963;SDS011;2497;47.410;9.740;2023-06-19T08:49:24;7.43;;;5.20;;
4963;SDS011;2497;47.410;9.740;2023-06-19T08:51:51;8.40;;;5.60;;
4963;SDS011;2497;47.410;9.740;2023-06-19T08:54:18;6.97;;;5.47;;
4963;SDS011;2497;47.410;9.740;2023-06-19T08:56:46;7.00;;;5.13;;
4963;SDS011;2497;47.410;9.740;2023-06-19T08:59:21;10.00;;;5.47;;
4963;SDS011;2497;47.410;9.740;2023-06-19T09:01:49;15.10;;;5.80;;
4963;SDS011;2497;47.410;9.740;2023-06-19T09:04:19;8.80;;;6.13;;
4963;SDS011;2497;47.410;9.740;2023-06-19T09:06:48;8.93;;;5.60;;
4963;SDS011;2497;47.410;9.740;2023-06-19T09:09:18;9.43;;;5.07;;
4963;SDS011;2497;47.410;9.740;2023-06-19T09:11:56;7.20;;;5.57;;
4963;SDS011;2497;47.410;9.740;2023-06-19T09:14:24;9.27;;;5.60;;
4963;SDS011;2497;47.410;9.740;2023-06-19T09:16:57;8.43;;;6.10;;
4963;SDS011;2497;47.410;9.740;2023-06-19T09:19:26;8.43;;;5.77;;
4963;SDS011;2497;47.410;9.740;2023-06-19T09:22:00;7.37;;;5.50;;
4963;SDS011;2497;47.410;9.740;2023-06-19T09:24:33;6.43;;;5.13;;
4963;SDS011;2497;47.410;9.740;2023-06-19T09:27:08;6.67;;;5.27;;
4963;SDS011;2497;47.410;9.740;2023-06-19T09:29:38;11.33;;;5.23;;
4963;SDS011;2497;47.410;9.740;2023-06-19T09:32:16;8.30;;;5.13;;
4963;SDS011;2497;47.410;9.740;2023-06-19T09:34:45;5.87;;;4.40;;
4963;SDS011;2497;47.410;9.740;2023-06-19T09:37:13;6.00;;;5.27;;
4963;SDS011;2497;47.410;9.740;2023-06-19T09:39:44;5.03;;;4.53;;
4963;SDS011;2497;47.410;9.740;2023-06-19T09:42:12;6.40;;;4.90;;
4963;SDS011;2497;47.410;9.740;2023-06-19T09:44:42;6.20;;;5.00;;
4963;SDS011;2497;47.410;9.740;2023-06-19T09:47:12;4.77;;;4.30;;
4963;SDS011;2497;47.410;9.740;2023-06-19T09:49:49;6.50;;;4.13;;
4963;SDS011;2497;47.410;9.740;2023-06-19T09:52:24;5.50;;;4.80;;
4963;SDS011;2497;47.410;9.740;2023-06-19T09:54:53;10.20;;;5.80;;
4963;SDS011;2497;47.410;9.740;2023-06-19T09:57:23;6.10;;;5.50;;
4963;SDS011;2497;47.410;9.740;2023-06-19T09:59:51;5.90;;;4.83;;
4963;SDS011;2497;47.410;9.740;2023-06-19T10:02:21;7.57;;;5.73;;
4963;SDS011;2497;47.410;9.740;2023-06-19T10:04:51;6.47;;;5.00;;
4963;SDS011;2497;47.410;9.740;2023-06-19T10:07:20;4.20;;;3.80;;
4963;SDS011;2497;47.410;9.740;2023-06-19T10:09:56;9.27;;;5.00;;
4963;SDS011;2497;47.410;9.740;2023-06-19T10:12:33;4.93;;;3.80;;
4963;SDS011;2497;47.410;9.740;2023-06-19T10:15:10;6.30;;;4.60;;
4963;SDS011;2497;47.410;9.740;2023-06-19T10:17:42;4.23;;;3.30;;
4963;SDS011;2497;47.410;9.740;2023-06-19T10:20:20;6.37;;;3.70;;
4963;SDS011;2497;47.410;9.740;2023-06-19T10:22:59;4.53;;;3.43;;
4963;SDS011;2497;47.410;9.740;2023-06-19T10:25:35;8.10;;;3.50;;
4963;SDS011;2497;47.410;9.740;2023-06-19T10:28:15;7.53;;;4.27;;
4963;SDS011;2497;47.410;9.740;2023-06-19T10:30:54;8.17;;;4.70;;
4963;SDS011;2497;47.410;9.740;2023-06-19T10:33:21;6.37;;;4.63;;
4963;SDS011;2497;47.410;9.740;2023-06-19T10:35:50;8.00;;;4.13;;
4963;SDS011;2497;47.410;9.740;2023-06-19T10:38:19;4.60;;;4.00;;
4963;SDS011;2497;47.410;9.740;2023-06-19T10:40:46;4.90;;;4.37;;
4963;SDS011;2497;47.410;9.740;2023-06-19T10:43:18;5.50;;;4.00;;
4963;SDS011;2497;47.410;9.740;2023-06-19T10:45:48;5.93;;;4.07;;
4963;SDS011;2497;47.410;9.740;2023-06-19T10:48:18;8.80;;;4.47;;
4963;SDS011;2497;47.410;9.740;2023-06-19T10:50:46;5.33;;;3.80;;
4963;SDS011;2497;47.410;9.740;2023-06-19T10:53:24;5.30;;;4.57;;
4963;SDS011;2497;47.410;9.740;2023-06-19T10:55:54;5.83;;;4.77;;
4963;SDS011;2497;47.410;9.740;2023-06-19T10:58:24;6.40;;;4.53;;
4963;SDS011;2497;47.410;9.740;2023-06-19T11:00:53;5.20;;;4.10;;
4963;SDS011;2497;47.410;9.740;2023-06-19T11:03:26;5.23;;;4.00;;
4963;SDS011;2497;47.410;9.740;2023-06-19T11:05:55;6.23;;;4.70;;
4963;SDS011;2497;47.410;9.740;2023-06-19T11:08:29;6.33;;;4.43;;
4963;SDS011;2497;47.410;9.740;2023-06-19T11:10:57;6.30;;;4.67;;
4963;SDS011;2497;47.410;9.740;2023-06-19T11:13:27;6.23;;;3.77;;
4963;SDS011;2497;47.410;9.740;2023-06-19T11:15:56;8.73;;;4.07;;
4963;SDS011;2497;47.410;9.740;2023-06-19T11:18:27;5.53;;;4.70;;
4963;SDS011;2497;47.410;9.740;2023-06-19T11:20:55;4.93;;;4.00;;
4963;SDS011;2497;47.410;9.740;2023-06-19T11:23:26;4.87;;;3.80;;
4963;SDS011;2497;47.410;9.740;2023-06-19T11:26:01;4.57;;;4.00;;
4963;SDS011;2497;47.410;9.740;2023-06-19T11:28:29;5.93;;;3.40;;
4963;SDS011;2497;47.410;9.740;2023-06-19T11:30:58;3.43;;;3.00;;
4963;SDS011;2497;47.410;9.740;2023-06-19T11:33:26;3.80;;;3.43;;
4963;SDS011;2497;47.410;9.740;2023-06-19T11:35:54;4.13;;;3.73;;
4963;SDS011;2497;47.410;9.740;2023-06-19T11:38:29;3.70;;;3.13;;
4963;SDS011;2497;47.410;9.740;2023-06-19T11:40:59;4.23;;;3.40;;
4963;SDS011;2497;47.410;9.740;2023-06-19T11:43:27;4.43;;;2.93;;
4963;SDS011;2497;47.410;9.740;2023-06-19T11:45:59;5.90;;;3.53;;
4963;SDS011;2497;47.410;9.740;2023-06-19T11:48:28;6.03;;;4.10;;
4963;SDS011;2497;47.410;9.740;2023-06-19T11:50:55;3.97;;;3.27;;
4963;SDS011;2497;47.410;9.740;2023-06-19T11:53:23;4.27;;;3.80;;
4963;SDS011;2497;47.410;9.740;2023-06-19T11:55:52;3.53;;;3.23;;
4963;SDS011;2497;47.410;9.740;2023-06-19T11:58:19;5.90;;;3.50;;
4963;SDS011;2497;47.410;9.740;2023-06-19T12:00:47;5.30;;;3.47;;
4963;SDS011;2497;47.410;9.740;2023-06-19T12:03:15;5.03;;;3.37;;
4963;SDS011;2497;47.410;9.740;2023-06-19T12:05:52;4.40;;;3.40;;
4963;SDS011;2497;47.410;9.740;2023-06-19T12:08:22;3.73;;;3.10;;
4963;SDS011;2497;47.410;9.740;2023-06-19T12:10:53;5.30;;;3.10;;
4963;SDS011;2497;47.410;9.740;2023-06-19T12:13:26;3.43;;;2.80;;
4963;SDS011;2497;47.410;9.740;2023-06-19T12:15:59;3.60;;;3.30;;
4963;SDS011;2497;47.410;9.740;2023-06-19T12:18:26;3.80;;;2.70;;
4963;SDS011;2497;47.410;9.740;2023-06-19T12:20:55;4.00;;;2.60;;
4963;SDS011;2497;47.410;9.740;2023-06-19T12:23:29;3.73;;;3.10;;
4963;SDS011;2497;47.410;9.740;2023-06-19T12:26:00;3.40;;;2.67;;
4963;SDS011;2497;47.410;9.740;2023-06-19T12:28:32;4.00;;;2.67;;
4963;SDS011;2497;47.410;9.740;2023-06-19T12:31:05;6.83;;;2.93;;
4963;SDS011;2497;47.410;9.740;2023-06-19T12:33:45;6.00;;;3.20;;
4963;SDS011;2497;47.410;9.740;2023-06-19T12:36:18;4.77;;;2.93;;
4963;SDS011;2497;47.410;9.740;2023-06-19T12:38:48;3.30;;;3.00;;
4963;SDS011;2497;47.410;9.740;2023-06-19T12:41:29;3.27;;;2.70;;
4963;SDS011;2497;47.410;9.740;2023-06-19T12:44:02;3.77;;;3.37;;
4963;SDS011;2497;47.410;9.740;2023-06-19T12:46:39;4.33;;;3.37;;
4963;SDS011;2497;47.410;9.740;2023-06-19T12:49:06;5.10;;;3.43;;
4963;SDS011;2497;47.410;9.740;2023-06-19T12:51:43;6.67;;;3.13;;
4963;SDS011;2497;47.410;9.740;2023-06-19T12:54:19;3.43;;;2.97;;
4963;SDS011;2497;47.410;9.740;2023-06-19T12:56:48;3.80;;;3.10;;
4963;SDS011;2497;47.410;9.740;2023-06-19T12:59:17;4.73;;;3.43;;
4963;SDS011;2497;47.410;9.740;2023-06-19T13:01:47;3.90;;;3.50;;
4963;SDS011;2497;47.410;9.740;2023-06-19T13:04:15;4.80;;;4.00;;
4963;SDS011;2497;47.410;9.740;2023-06-19T13:06:47;9.53;;;3.60;;
4963;SDS011;2497;47.410;9.740;2023-06-19T13:09:16;6.43;;;4.23;;
4963;SDS011;2497;47.410;9.740;2023-06-19T13:11:51;4.53;;;4.00;;
4963;SDS011;2497;47.410;9.740;2023-06-19T13:14:18;5.13;;;4.20;;
4963;SDS011;2497;47.410;9.740;2023-06-19T13:16:46;6.63;;;4.30;;
4963;SDS011;2497;47.410;9.740;2023-06-19T13:19:16;6.10;;;4.70;;
4963;SDS011;2497;47.410;9.740;2023-06-19T13:21:44;5.50;;;4.03;;
4963;SDS011;2497;47.410;9.740;2023-06-19T13:24:22;5.20;;;4.10;;
4963;SDS011;2497;47.410;9.740;2023-06-19T13:26:52;6.37;;;5.00;;
4963;SDS011;2497;47.410;9.740;2023-06-19T13:29:20;5.00;;;4.03;;
4963;SDS011;2497;47.410;9.740;2023-06-19T13:31:47;6.30;;;4.37;;
4963;SDS011;2497;47.410;9.740;2023-06-19T13:34:17;5.53;;;4.17;;
4963;SDS011;2497;47.410;9.740;2023-06-19T13:36:47;6.50;;;4.20;;
4963;SDS011;2497;47.410;9.740;2023-06-19T13:39:16;8.10;;;4.60;;
4963;SDS011;2497;47.410;9.740;2023-06-19T13:41:49;6.83;;;4.30;;
4963;SDS011;2497;47.410;9.740;2023-06-19T13:44:18;6.80;;;5.00;;
4963;SDS011;2497;47.410;9.740;2023-06-19T13:46:51;6.37;;;5.10;;
4963;SDS011;2497;47.410;9.740;2023-06-19T13:49:19;4.90;;;4.17;;
4963;SDS011;2497;47.410;9.740;2023-06-19T13:51:48;6.37;;;4.83;;
4963;SDS011;2497;47.410;9.740;2023-06-19T13:54:16;6.50;;;4.30;;
4963;SDS011;2497;47.410;9.740;2023-06-19T13:56:49;6.90;;;4.70;;
4963;SDS011;2497;47.410;9.740;2023-06-19T13:59:21;8.27;;;4.70;;
4963;SDS011;2497;47.410;9.740;2023-06-19T14:01:50;10.30;;;4.90;;
4963;SDS011;2497;47.410;9.740;2023-06-19T14:04:17;7.93;;;5.10;;
4963;SDS011;2497;47.410;9.740;2023-06-19T14:06:46;6.17;;;4.80;;
4963;SDS011;2497;47.410;9.740;2023-06-19T14:09:16;6.53;;;4.97;;
4963;SDS011;2497;47.410;9.740;2023-06-19T14:11:47;5.23;;;4.50;;
4963;SDS011;2497;47.410;9.740;2023-06-19T14:14:16;5.60;;;4.63;;
4963;SDS011;2497;47.410;9.740;2023-06-19T14:16:53;5.97;;;5.30;;
4963;SDS011;2497;47.410;9.740;2023-06-19T14:19:23;8.43;;;5.10;;
4963;SDS011;2497;47.410;9.740;2023-06-19T14:21:50;6.53;;;5.00;;
4963;SDS011;2497;47.410;9.740;2023-06-19T14:24:18;7.83;;;5.00;;
4963;SDS011;2497;47.410;9.740;2023-06-19T14:26:51;5.90;;;4.43;;
4963;SDS011;2497;47.410;9.740;2023-06-19T14:29:18;5.87;;;4.17;;
4963;SDS011;2497;47.410;9.740;2023-06-19T14:31:49;6.43;;;4.47;;
4963;SDS011;2497;47.410;9.740;2023-06-19T14:34:18;6.10;;;4.40;;
4963;SDS011;2497;47.410;9.740;2023-06-19T14:36:45;5.50;;;4.50;;
4963;SDS011;2497;47.410;9.740;2023-06-19T14:39:15;5.43;;;4.60;;
4963;SDS011;2497;47.410;9.740;2023-06-19T14:41:49;6.77;;;4.90;;
4963;SDS011;2497;47.410;9.740;2023-06-19T14:44:18;6.00;;;5.00;;
4963;SDS011;2497;47.410;9.740;2023-06-19T14:46:50;6.90;;;5.00;;
4963;SDS011;2497;47.410;9.740;2023-06-19T14:49:20;8.50;;;5.10;;
4963;SDS011;2497;47.410;9.740;2023-06-19T14:51:51;7.70;;;5.37;;
4963;SDS011;2497;47.410;9.740;2023-06-19T14:54:29;13.60;;;4.90;;
4963;SDS011;2497;47.410;9.740;2023-06-19T14:57:02;8.90;;;4.87;;
4963;SDS011;2497;47.410;9.740;2023-06-19T14:59:30;7.07;;;5.33;;
4963;SDS011;2497;47.410;9.740;2023-06-19T15:02:00;7.67;;;4.60;;
4963;SDS011;2497;47.410;9.740;2023-06-19T15:04:40;7.00;;;5.87;;
4963;SDS011;2497;47.410;9.740;2023-06-19T15:07:08;6.40;;;4.80;;
4963;SDS011;2497;47.410;9.740;2023-06-19T15:09:40;6.83;;;4.70;;
4963;SDS011;2497;47.410;9.740;2023-06-19T15:12:10;7.37;;;5.23;;
4963;SDS011;2497;47.410;9.740;2023-06-19T15:14:39;6.00;;;5.37;;
4963;SDS011;2497;47.410;9.740;2023-06-19T15:17:11;6.13;;;5.27;;
4963;SDS011;2497;47.410;9.740;2023-06-19T15:19:40;6.00;;;5.10;;
4963;SDS011;2497;47.410;9.740;2023-06-19T15:22:09;5.63;;;4.80;;
4963;SDS011;2497;47.410;9.740;2023-06-19T15:24:38;8.03;;;5.23;;